Time;durP1;ratioP1;P1;durP2;ratioP2;P2;SDS_P1;SDS_P2;PMS_P1;PMS_P2;Temp;Humidity;BMP_temperature;BMP_pressure;BME280_temperature;BME280_humidity;BME280_pressure;Samples;Min_cycle;Max_cycle;Signal;HPM_P1;HPM_P2
2023/04/05 00:02:30;;;;;;;;;;;;;;;4.17;38.00;100754.28;5363326;32;33078;-65
2023/04/05 00:05:33;;;;;;;;;;;;;;;4.20;38.09;100743.00;5341232;32;33050;-66
2023/04/05 00:08:36;;;;;;;;;;;;;;;3.57;39.23;100756.38;5375560;32;33276;-66
2023/04/05 00:11:37;;;;;;;;;;;;;;;3.63;39.55;100748.53;5362625;32;32883;-70
2023/04/05 00:14:40;;;;;;;;;;;;;;;3.58;39.70;100752.03;5375086;32;44536;-65
2023/04/05 00:17:42;;;;;;;;;;;;;;;3.33;39.91;100743.47;5362277;32;34703;-66
2023/04/05 00:20:44;;;;;;;;;;;;;;;3.34;39.69;100745.19;5370845;32;33186;-65
2023/04/05 00:23:50;;;;;;;;;;;;;;;3.63;39.21;100742.47;5368382;32;34784;-65
2023/04/05 00:26:52;;;;;;;;;;;;;;;3.17;40.25;100738.34;5359790;32;34046;-66
2023/04/05 00:29:54;;;;;;;;;;;;;;;3.87;39.33;100734.56;5374870;32;33110;-66
2023/04/05 00:32:56;;;;;;;;;;;;;;;3.83;38.99;100731.97;5362326;32;34235;-65
2023/04/05 00:36:11;;;;;;;;;;;;;;;3.98;38.85;100732.72;5374572;32;34405;-65
2023/04/05 00:39:13;;;;;;;;;;;;;;;3.95;38.57;100731.91;5363438;32;44601;-66
2023/04/05 00:42:15;;;;;;;;;;;;;;;4.78;37.22;100726.88;5362373;32;32376;-65
2023/04/05 00:45:17;;;;;;;;;;;;;;;4.20;37.80;100732.59;5372820;32;34387;-67
2023/04/05 00:48:21;;;;;;;;;;;;;;;4.01;38.71;100731.84;5362860;32;33439;-65
2023/04/05 00:51:23;;;;;;;;;;;;;;;4.00;38.42;100731.00;5375178;32;33460;-67
2023/04/05 00:54:27;;;;;;;;;;;;;;;3.60;39.51;100735.53;5347507;32;33037;-67
2023/04/05 00:57:30;;;;;;;;;;;;;;;3.96;38.62;100737.06;5371341;32;34282;-67
2023/04/05 01:00:32;;;;;;;;;;;;;;;3.78;38.55;100739.78;5362239;32;34918;-67
2023/04/05 01:03:35;;;;;;;;;;;;;;;3.97;38.78;100736.19;5354903;32;34394;-67
2023/04/05 01:06:43;;;;;;;;;;;;;;;3.45;39.42;100740.81;5357181;32;44523;-68
2023/04/05 01:09:47;;;;;;;;;;;;;;;3.66;39.19;100740.72;5359976;32;33150;-67
2023/04/05 01:12:49;;;;;;;;;;;;;;;4.41;37.99;100723.75;5373759;32;33750;-66
2023/04/05 01:15:51;;;;;;;;;;;;;;;3.83;38.96;100734.56;5363963;32;34395;-66
2023/04/05 01:18:55;;;;;;;;;;;;;;;4.04;38.34;100729.22;5373644;32;34398;-66
2023/04/05 01:22:25;;;;;;;;;;;;;;;3.19;39.80;100726.19;5364248;32;33000;-64
2023/04/05 01:25:29;;;;;;;;;;;;;;;3.37;40.06;100730.47;5368379;32;34316;-67
2023/04/05 01:28:31;;;;;;;;;;;;;;;3.82;38.63;100717.25;5377164;32;31354;-66
2023/04/05 01:31:33;;;;;;;;;;;;;;;3.33;40.13;100723.53;5362691;32;34548;-65
2023/04/05 01:34:53;;;;;;;;;;;;;;;2.98;40.77;100723.69;5375970;32;33109;-64
2023/04/05 01:37:56;;;;;;;;;;;;;;;3.91;39.34;100720.62;5365060;32;34248;-65
2023/04/05 01:40:58;;;;;;;;;;;;;;;3.87;39.06;100723.28;5361881;32;33050;-65
2023/04/05 01:44:00;;;;;;;;;;;;;;;4.24;38.57;100713.47;5376995;32;33090;-65
2023/04/05 01:47:02;;;;;;;;;;;;;;;3.52;40.02;100721.72;5361560;32;33066;-68
2023/04/05 01:50:05;;;;;;;;;;;;;;;3.55;40.18;100726.06;5377197;32;33444;-65
2023/04/05 01:53:07;;;;;;;;;;;;;;;2.95;41.35;100721.94;5364804;32;32727;-67
2023/04/05 01:56:09;;;;;;;;;;;;;;;3.63;40.11;100719.09;5369930;32;44495;-65
2023/04/05 01:59:11;;;;;;;;;;;;;;;3.39;40.64;100715.72;5367278;32;32911;-66
2023/04/05 02:02:13;;;;;;;;;;;;;;;3.42;40.44;100720.94;5361965;32;33235;-66
2023/04/05 02:05:15;;;;;;;;;;;;;;;3.48;40.32;100715.69;5354283;32;34229;-68
2023/04/05 02:08:17;;;;;;;;;;;;;;;4.05;39.08;100713.59;5363353;32;33377;-68
2023/04/05 02:11:19;;;;;;;;;;;;;;;2.64;42.40;100722.88;5375918;32;34210;-67
2023/04/05 02:14:24;;;;;;;;;;;;;;;3.38;40.77;100718.34;5363154;32;33344;-66
2023/04/05 02:17:32;;;;;;;;;;;;;;;3.61;40.21;100711.31;5368841;32;33093;-66
2023/04/05 02:20:35;;;;;;;;;;;;;;;3.28;41.36;100701.03;5372791;32;34302;-65
2023/04/05 02:23:37;;;;;;;;;;;;;;;3.12;41.50;100716.72;5364337;32;32906;-67
2023/04/05 02:26:39;;;;;;;;;;;;;;;3.78;40.54;100712.03;5378669;32;46095;-66
2023/04/05 02:29:41;;;;;;;;;;;;;;;3.29;41.08;100721.00;5363288;32;32757;-67
2023/04/05 02:32:44;;;;;;;;;;;;;;;3.49;40.53;100707.03;5375326;32;34399;-66
2023/04/05 02:35:47;;;;;;;;;;;;;;;3.29;41.13;100710.59;5361945;32;33576;-67
2023/04/05 02:38:49;;;;;;;;;;;;;;;2.69;42.45;100713.34;5353288;32;32872;-66
2023/04/05 02:41:51;;;;;;;;;;;;;;;3.12;41.91;100708.06;5372789;32;33409;-67
2023/04/05 02:44:53;;;;;;;;;;;;;;;2.99;41.98;100715.03;5366404;32;33192;-67
2023/04/05 02:47:55;;;;;;;;;;;;;;;2.56;42.88;100707.31;5377164;32;33117;-65
2023/04/05 02:50:56;;;;;;;;;;;;;;;3.59;40.59;100686.16;5359846;32;32928;-66
2023/04/05 02:54:00;;;;;;;;;;;;;;;2.65;42.87;100707.31;5374927;32;33015;-66
2023/04/05 02:57:02;;;;;;;;;;;;;;;3.23;41.44;100709.75;5363588;32;32982;-66
2023/04/05 03:00:04;;;;;;;;;;;;;;;3.49;41.22;100703.56;5367087;32;33193;-66
2023/04/05 03:03:06;;;;;;;;;;;;;;;3.05;42.00;100699.41;5375339;32;34209;-68
2023/04/05 03:06:08;;;;;;;;;;;;;;;3.82;40.34;100699.91;5340727;32;43862;-66
2023/04/05 03:09:11;;;;;;;;;;;;;;;2.76;42.33;100703.81;5375973;32;34590;-65
2023/04/05 03:12:13;;;;;;;;;;;;;;;3.38;40.94;100702.75;5362414;32;33009;-65
2023/04/05 03:15:15;;;;;;;;;;;;;;;2.58;42.92;100703.00;5375684;32;32971;-65
2023/04/05 03:18:17;;;;;;;;;;;;;;;2.95;42.00;100711.56;5364429;32;32973;-66
2023/04/05 03:21:20;;;;;;;;;;;;;;;3.17;41.80;100709.78;5366382;32;32986;-67
2023/04/05 03:24:22;;;;;;;;;;;;;;;3.11;41.68;100696.81;5376805;32;33327;-66
2023/04/05 03:27:25;;;;;;;;;;;;;;;3.41;40.90;100715.72;5363706;32;33177;-66
2023/04/05 03:30:27;;;;;;;;;;;;;;;3.62;40.41;100718.22;5374829;32;34886;-66
2023/04/05 03:33:29;;;;;;;;;;;;;;;2.44;42.46;100726.34;5361686;32;33487;-66
2023/04/05 03:36:40;;;;;;;;;;;;;;;2.55;42.62;100712.50;5374503;32;34581;-64
2023/04/05 03:39:42;;;;;;;;;;;;;;;2.76;42.03;100724.59;5362618;32;44507;-66
2023/04/05 03:42:46;;;;;;;;;;;;;;;2.95;41.56;100724.53;5362951;32;33171;-66
2023/04/05 03:45:49;;;;;;;;;;;;;;;2.81;41.66;100715.06;5373800;32;35092;-66
2023/04/05 03:48:51;;;;;;;;;;;;;;;3.03;41.50;100724.53;5362273;32;34607;-66
2023/04/05 03:51:53;;;;;;;;;;;;;;;2.78;41.69;100728.06;5375517;32;32924;-65
2023/04/05 03:54:55;;;;;;;;;;;;;;;2.54;42.69;100728.94;5373972;32;34397;-65
2023/04/05 03:57:57;;;;;;;;;;;;;;;2.74;41.89;100734.12;5372438;32;34698;-66
2023/04/05 04:00:59;;;;;;;;;;;;;;;2.66;41.63;100735.00;5364467;32;34556;-66
2023/04/05 04:04:03;;;;;;;;;;;;;;;2.14;42.87;100741.94;5352213;32;34357;-67
2023/04/05 04:07:05;;;;;;;;;;;;;;;2.80;42.02;100731.50;5365267;32;33070;-66
2023/04/05 04:10:09;;;;;;;;;;;;;;;2.55;41.75;100734.12;5361760;32;32942;-66
2023/04/05 04:13:11;;;;;;;;;;;;;;;2.20;42.69;100741.06;5375508;32;44478;-65
2023/04/05 04:16:13;;;;;;;;;;;;;;;2.18;43.30;100741.91;5362399;32;33059;-67
2023/04/05 04:19:18;;;;;;;;;;;;;;;2.43;42.61;100741.91;5370040;32;34547;-66
2023/04/05 04:22:20;;;;;;;;;;;;;;;2.93;41.99;100741.00;5368258;32;33082;-68
2023/04/05 04:25:22;;;;;;;;;;;;;;;3.74;39.79;100743.28;5362435;32;34605;-66
2023/04/05 04:28:24;;;;;;;;;;;;;;;3.13;40.86;100748.72;5374991;32;33025;-66
2023/04/05 04:31:26;;;;;;;;;;;;;;;2.71;41.43;100747.97;5361105;32;34306;-67
2023/04/05 04:34:29;;;;;;;;;;;;;;;2.60;41.70;100745.37;5381568;32;33072;-67
2023/04/05 04:37:31;;;;;;;;;;;;;;;2.55;42.05;100741.91;5359369;32;34207;-67
2023/04/05 04:40:40;;;;;;;;;;;;;;;3.26;40.57;100745.22;5369969;32;33563;-66
2023/04/05 04:43:42;;;;;;;;;;;;;;;2.27;42.21;100732.44;5372972;32;45062;-67
2023/04/05 04:46:47;;;;;;;;;;;;;;;2.04;42.94;100747.94;5358858;32;33043;-66
2023/04/05 04:49:49;;;;;;;;;;;;;;;2.48;41.63;100727.22;5376345;32;34609;-68
2023/04/05 04:52:51;;;;;;;;;;;;;;;2.58;41.85;100743.66;5359409;32;32945;-65
2023/04/05 04:55:54;;;;;;;;;;;;;;;3.19;40.81;100746.13;5360744;32;34580;-67
2023/04/05 04:58:56;;;;;;;;;;;;;;;2.50;42.17;100735.00;5360785;32;32902;-66
2023/04/05 05:01:58;;;;;;;;;;;;;;;3.66;40.03;100748.50;5361538;32;32943;-64
2023/04/05 05:05:00;;;;;;;;;;;;;;;3.16;41.14;100749.59;5354947;32;34896;-65
2023/04/05 05:08:02;;;;;;;;;;;;;;;3.87;39.38;100750.16;5357340;32;34660;-66
2023/04/05 05:11:05;;;;;;;;;;;;;;;3.07;40.92;100756.53;5373040;32;34697;-67
2023/04/05 05:14:07;;;;;;;;;;;;;;;4.00;39.87;100750.94;5359804;32;34408;-67
2023/04/05 05:17:09;;;;;;;;;;;;;;;3.55;39.86;100752.06;5373024;32;44654;-65
2023/04/05 05:20:11;;;;;;;;;;;;;;;4.19;38.85;100751.69;5361508;32;31453;-66
2023/04/05 05:23:13;;;;;;;;;;;;;;;4.06;38.79;100754.38;5363450;32;33011;-66
2023/04/05 05:26:15;;;;;;;;;;;;;;;4.40;37.80;100748.03;5371774;32;33149;-66
2023/04/05 05:29:18;;;;;;;;;;;;;;;4.51;37.23;100759.25;5357959;32;34118;-67
2023/04/05 05:32:21;;;;;;;;;;;;;;;5.32;36.60;100756.66;5374544;32;34295;-69
2023/04/05 05:35:23;;;;;;;;;;;;;;;6.10;35.10;100752.19;5369688;32;33396;-78
2023/04/05 05:38:25;;;;;;;;;;;;;;;6.90;33.49;100742.16;5376605;32;33188;-67
2023/04/05 05:41:28;;;;;;;;;;;;;;;6.89;33.12;100740.44;5362174;32;33095;-67
2023/04/05 05:44:30;;;;;;;;;;;;;;;7.39;32.27;100748.16;5364215;32;33182;-68
2023/04/05 05:47:32;;;;;;;;;;;;;;;5.91;33.59;100754.19;5374663;32;34889;-73
2023/04/05 05:50:34;;;;;;;;;;;;;;;6.70;32.93;100750.34;5363891;32;33277;-75
2023/04/05 05:53:37;;;;;;;;;;;;;;;6.63;33.13;100747.84;5372714;32;33577;-74
2023/04/05 05:56:39;;;;;;;;;;;;;;;7.93;31.11;100742.69;5360507;32;44616;-75
2023/04/05 05:59:41;;;;;;;;;;;;;;;7.57;31.37;100743.41;5376486;32;33530;-68
2023/04/05 06:02:43;;;;;;;;;;;;;;;9.12;29.08;100729.22;5365652;32;33373;-68
2023/04/05 06:05:52;;;;;;;;;;;;;;;9.61;28.54;100736.56;5346763;32;30693;-68
2023/04/05 06:08:56;;;;;;;;;;;;;;;8.91;29.04;100738.53;5372300;32;32985;-67
2023/04/05 06:11:58;;;;;;;;;;;;;;;8.41;29.93;100745.91;5338075;32;958534;-68
2023/04/05 06:15:00;;;;;;;;;;;;;;;9.87;28.07;100732.28;5383742;32;35207;-66
2023/04/05 06:18:02;;;;;;;;;;;;;;;9.53;27.74;100735.91;5370802;32;33052;-67
2023/04/05 06:21:07;;;;;;;;;;;;;;;7.30;31.35;100749.22;5378001;32;34800;-67
2023/04/05 06:24:09;;;;;;;;;;;;;;;7.59;30.83;100749.47;5373055;32;45307;-66
2023/04/05 06:27:13;;;;;;;;;;;;;;;8.48;30.08;100752.72;5371750;32;33048;-65
2023/04/05 06:30:15;;;;;;;;;;;;;;;8.21;30.31;100753.38;5378596;32;34292;-66
2023/04/05 06:33:17;;;;;;;;;;;;;;;8.97;29.22;100743.62;5370430;32;34097;-66
2023/04/05 06:36:19;;;;;;;;;;;;;;;8.58;28.92;100743.75;5383681;32;34072;-63
2023/04/05 06:39:22;;;;;;;;;;;;;;;8.84;28.98;100739.59;5367222;32;33407;-62
2023/04/05 06:42:24;;;;;;;;;;;;;;;9.38;27.89;100731.09;5376732;32;34149;-71
2023/04/05 06:45:28;;;;;;;;;;;;;;;10.71;25.95;100722.56;5364724;32;33017;-69
2023/04/05 06:48:30;;;;;;;;;;;;;;;11.25;24.65;100744.34;5365635;32;33198;-65
2023/04/05 06:51:33;;;;;;;;;;;;;;;9.35;26.37;100736.47;5381823;32;33430;-66
2023/04/05 06:54:39;;;;;;;;;;;;;;;10.61;25.25;100742.16;5373882;32;34349;-63
2023/04/05 06:57:41;;;;;;;;;;;;;;;10.64;24.23;100746.47;5377053;32;47360;-67
2023/04/05 07:00:43;;;;;;;;;;;;;;;8.85;27.24;100747.41;5372166;32;34810;-64
2023/04/05 07:03:46;;;;;;;;;;;;;;;9.58;26.78;100746.28;5358558;32;33025;-66
2023/04/05 07:06:48;;;;;;;;;;;;;;;10.03;26.01;100736.16;5367991;32;34680;-65
2023/04/05 07:09:50;;;;;;;;;;;;;;;11.98;23.67;100738.09;5366431;32;33810;-66
2023/04/05 07:12:52;;;;;;;;;;;;;;;10.70;24.19;100743.66;5382441;32;32918;-63
2023/04/05 07:16:01;;;;;;;;;;;;;;;11.62;23.91;100742.06;5374731;32;34222;-65
2023/04/05 07:19:05;;;;;;;;;;;;;;;11.65;23.49;100741.06;5381231;32;34553;-64
2023/04/05 07:22:07;;;;;;;;;;;;;;;11.35;24.06;100741.31;5371266;32;33572;-62
2023/04/05 07:25:09;;;;;;;;;;;;;;;10.51;25.01;100749.53;5373718;32;43707;-66
2023/04/05 07:28:11;;;;;;;;;;;;;;;11.08;24.91;100739.69;5381925;32;34787;-66
2023/04/05 07:31:13;;;;;;;;;;;;;;;9.94;25.06;100745.19;5372477;32;33277;-66
2023/04/05 07:34:15;;;;;;;;;;;;;;;10.79;24.53;100743.31;5381930;32;34490;-66
2023/04/05 07:37:17;;;;;;;;;;;;;;;9.28;26.03;100754.12;5345735;32;34035;-69
2023/04/05 07:40:19;;;;;;;;;;;;;;;11.98;23.24;100735.47;5381699;32;33505;-66
2023/04/05 07:43:27;;;;;;;;;;;;;;;14.11;20.54;100713.84;5349975;32;34464;-67
2023/04/05 07:46:29;;;;;;;;;;;;;;;12.15;22.91;100735.66;5372399;32;34424;-70
2023/04/05 07:49:31;;;;;;;;;;;;;;;9.54;25.68;100748.13;5383246;32;31907;-70
2023/04/05 07:52:33;;;;;;;;;;;;;;;10.31;24.67;100736.19;5370645;32;34075;-68
2023/04/05 07:55:38;;;;;;;;;;;;;;;11.75;23.72;100741.59;5380891;32;34276;-67
2023/04/05 07:58:40;;;;;;;;;;;;;;;12.44;22.67;100730.06;5366526;32;44490;-65
2023/04/05 08:01:42;;;;;;;;;;;;;;;11.31;23.76;100742.34;5382550;32;33740;-66
2023/04/05 08:04:45;;;;;;;;;;;;;;;11.51;23.63;100740.75;5355476;32;33034;-62
2023/04/05 08:07:47;;;;;;;;;;;;;;;11.24;24.16;100740.00;5369824;32;33224;-72
2023/04/05 08:10:49;;;;;;;;;;;;;;;12.63;22.91;100726.69;5380965;32;32897;-65
2023/04/05 08:13:53;;;;;;;;;;;;;;;12.69;22.14;100729.91;5365002;32;34220;-69
2023/04/05 08:16:57;;;;;;;;;;;;;;;11.91;22.86;100725.19;5376378;32;33555;-70
2023/04/05 08:19:59;;;;;;;;;;;;;;;11.33;23.41;100731.75;5368765;32;33260;-60
2023/04/05 08:23:01;;;;;;;;;;;;;;;11.79;22.95;100728.28;5373199;32;33528;-62
2023/04/05 08:26:04;;;;;;;;;;;;;;;10.60;24.43;100722.06;5373439;32;32831;-62
2023/04/05 08:29:08;;;;;;;;;;;;;;;10.26;25.03;100725.81;5360622;32;44938;-71
2023/04/05 08:32:10;;;;;;;;;;;;;;;11.99;23.23;100721.41;5382579;32;34575;-65
2023/04/05 08:35:13;;;;;;;;;;;;;;;10.76;24.94;100725.91;5370847;32;33668;-63
2023/04/05 08:38:15;;;;;;;;;;;;;;;13.55;21.77;100713.78;5380151;32;33352;-63
2023/04/05 08:41:17;;;;;;;;;;;;;;;13.02;22.10;100710.91;5367712;32;33070;-64
2023/04/05 08:44:19;;;;;;;;;;;;;;;14.48;20.93;100704.97;5373548;32;33110;-63
2023/04/05 08:47:21;;;;;;;;;;;;;;;13.69;21.25;100707.00;5373507;32;33755;-64
2023/04/05 08:50:23;;;;;;;;;;;;;;;12.48;22.45;100707.06;5368214;32;33525;-62
2023/04/05 08:53:25;;;;;;;;;;;;;;;10.74;24.95;100718.97;5372944;32;35664;-64
2023/04/05 08:56:31;;;;;;;;;;;;;;;11.61;23.79;100721.06;5361477;32;33156;-67
2023/04/05 08:59:36;;;;;;;;;;;;;;;12.00;22.79;100713.44;5377644;32;33078;-69
2023/04/05 09:02:38;;;;;;;;;;;;;;;14.42;20.40;100698.16;5359841;32;43241;-62
2023/04/05 09:05:40;;;;;;;;;;;;;;;12.87;22.48;100703.66;5360995;32;33346;-67
2023/04/05 09:08:42;;;;;;;;;;;;;;;13.71;21.13;100697.22;5371609;32;33505;-66
2023/04/05 09:11:44;;;;;;;;;;;;;;;12.01;23.46;100706.38;5371344;32;32968;-68
2023/04/05 09:14:47;;;;;;;;;;;;;;;14.08;21.16;100688.41;5375789;32;33768;-70
2023/04/05 09:17:49;;;;;;;;;;;;;;;14.68;20.40;100688.06;5353360;32;33868;-67
2023/04/05 09:20:55;;;;;;;;;;;;;;;14.78;20.21;100691.97;5384906;32;36399;-70
2023/04/05 09:23:57;;;;;;;;;;;;;;;15.01;19.92;100691.63;5365504;32;33070;-76
2023/04/05 09:27:11;;;;;;;;;;;;;;;16.37;18.71;100688.56;5371326;32;34201;-68
2023/04/05 09:30:20;;;;;;;;;;;;;;;15.73;19.37;100681.63;5375156;32;44506;-69
2023/04/05 09:33:22;;;;;;;;;;;;;;;15.08;19.65;100682.44;5355787;32;33058;-70
2023/04/05 09:36:24;;;;;;;;;;;;;;;15.29;19.56;100683.06;5380294;32;33013;-70
2023/04/05 09:39:27;;;;;;;;;;;;;;;13.52;21.76;100684.91;5372097;32;32412;-67
2023/04/05 09:42:30;;;;;;;;;;;;;;;15.26;20.12;100685.00;5371726;32;32979;-70
2023/04/05 09:45:37;;;;;;;;;;;;;;;14.57;20.37;100678.06;5367638;32;32805;-68
2023/04/05 09:48:46;;;;;;;;;;;;;;;15.12;19.70;100675.16;5368268;32;44592;-77
2023/04/05 09:51:48;;;;;;;;;;;;;;;15.06;19.82;100675.50;5382834;32;35098;-67
2023/04/05 09:54:56;;;;;;;;;;;;;;;15.39;19.36;100667.53;5362874;32;32997;-67
2023/04/05 09:57:59;;;;;;;;;;;;;;;14.97;19.57;100671.56;5380396;32;33204;-70
2023/04/05 10:01:01;;;;;;;;;;;;;;;15.03;19.13;100665.09;5362908;32;33382;-68
2023/04/05 10:04:21;;;;;;;;;;;;;;;14.82;19.69;100664.44;5357299;32;46297;-67
2023/04/05 10:07:24;;;;;;;;;;;;;;;16.68;18.05;100655.72;5373481;32;33049;-69
2023/04/05 10:10:26;;;;;;;;;;;;;;;15.04;19.52;100666.78;5368413;32;34545;-69
2023/04/05 10:13:27;;;;;;;;;;;;;;;18.18;16.81;100648.97;5384220;32;33119;-68
2023/04/05 10:16:37;;;;;;;;;;;;;;;19.15;15.90;100646.72;5371593;32;33087;-74
2023/04/05 10:19:39;;;;;;;;;;;;;;;15.86;19.03;100651.69;5378401;32;45118;-69
2023/04/05 10:22:44;;;;;;;;;;;;;;;14.02;20.83;100664.91;5372926;32;33003;-74
2023/04/05 10:25:46;;;;;;;;;;;;;;;14.77;20.21;100656.72;5369662;32;34297;-77
2023/04/05 10:28:51;;;;;;;;;;;;;;;15.08;20.06;100648.03;5375368;32;33140;-68
2023/04/05 10:32:03;;;;;;;;;;;;;;;16.09;19.04;100649.50;5364189;32;32991;-81
2023/04/05 10:35:12;;;;;;;;;;;;;;;16.05;18.03;100640.03;5382003;32;32274;-69
2023/04/05 10:38:24;;;;;;;;;;;;;;;14.45;19.77;100652.19;5371809;32;44404;-65
2023/04/05 10:41:26;;;;;;;;;;;;;;;15.20;18.15;100650.94;5369538;32;33296;-67
2023/04/05 10:44:29;;;;;;;;;;;;;;;17.47;16.96;100634.06;5382454;32;35151;-71
2023/04/05 10:47:32;;;;;;;;;;;;;;;15.94;19.07;100643.28;5372657;32;34444;-76
2023/04/05 10:50:36;;;;;;;;;;;;;;;13.38;21.63;100645.06;5386159;32;34518;-74
2023/04/05 10:53:39;;;;;;;;;;;;;;;16.58;18.61;100617.44;5371552;32;44102;-69
2023/04/05 10:56:42;;;;;;;;;;;;;;;15.36;19.22;100635.94;5385258;32;33165;-68
2023/04/05 10:59:46;;;;;;;;;;;;;;;15.40;19.76;100629.53;5377792;32;33061;-67
2023/04/05 11:02:52;;;;;;;;;;;;;;;15.66;19.21;100622.81;5368543;32;33160;-82
2023/04/05 11:06:36;;;;;;;;;;;;;;;13.57;21.23;100638.91;5363608;32;32408;-68
2023/04/05 11:09:39;;;;;;;;;;;;;;;13.88;20.95;100630.37;5325000;32;32912;-66
2023/04/05 11:12:47;;;;;;;;;;;;;;;15.13;19.86;100629.22;5318968;32;34332;-67
2023/04/05 11:16:06;;;;;;;;;;;;;;;13.20;21.93;100632.66;5378841;32;33348;-66
2023/04/05 11:19:08;;;;;;;;;;;;;;;12.48;22.77;100639.38;5369240;32;46670;-72
2023/04/05 11:22:14;;;;;;;;;;;;;;;13.72;21.15;100627.63;5379792;32;33906;-69
2023/04/05 11:25:22;;;;;;;;;;;;;;;14.09;20.43;100632.81;5368424;32;34312;-71
2023/04/05 11:28:27;;;;;;;;;;;;;;;14.18;18.95;100623.59;5378001;32;34124;-67
2023/04/05 11:31:29;;;;;;;;;;;;;;;14.04;19.98;100629.56;5376846;32;32968;-69
2023/04/05 11:34:35;;;;;;;;;;;;;;;14.26;20.27;100620.56;5365754;32;34300;-68
2023/04/05 11:37:52;;;;;;;;;;;;;;;15.05;20.05;100616.41;5382006;32;34159;-70
2023/04/05 11:41:10;;;;;;;;;;;;;;;18.32;16.90;100601.84;5367936;32;35370;-68
2023/04/05 11:44:15;;;;;;;;;;;;;;;19.61;14.91;100590.13;5372990;32;46525;-68
2023/04/05 11:47:22;;;;;;;;;;;;;;;19.71;15.19;100588.50;5371026;32;33008;-72
2023/04/05 11:50:24;;;;;;;;;;;;;;;17.20;17.25;100604.78;5373184;32;33131;-73
2023/04/05 11:53:26;;;;;;;;;;;;;;;17.42;15.75;100601.59;5382154;32;32979;-71
2023/04/05 11:56:28;;;;;;;;;;;;;;;16.02;16.76;100590.66;5371657;32;33015;-76
2023/04/05 11:59:34;;;;;;;;;;;;;;;17.80;15.32;100578.72;5375121;32;33135;-72
2023/04/05 12:02:36;;;;;;;;;;;;;;;17.80;14.39;100591.19;5368210;32;33017;-76
2023/04/05 12:05:48;;;;;;;;;;;;;;;14.48;17.32;100593.88;5363373;32;35118;-72
2023/04/05 12:08:51;;;;;;;;;;;;;;;15.95;16.07;100582.22;5378606;32;32881;-71
2023/04/05 12:11:54;;;;;;;;;;;;;;;18.44;14.55;100568.22;5366753;32;33056;-72
2023/04/05 12:14:59;;;;;;;;;;;;;;;16.37;15.42;100577.16;5383472;32;33362;-63
2023/04/05 12:18:01;;;;;;;;;;;;;;;16.97;15.34;100569.91;5374217;32;33389;-65
2023/04/05 12:21:04;;;;;;;;;;;;;;;18.18;13.84;100563.84;5378776;32;34575;-70
2023/04/05 12:24:08;;;;;;;;;;;;;;;17.80;14.31;100554.81;5365714;32;44906;-73
2023/04/05 12:27:10;;;;;;;;;;;;;;;18.58;13.74;100551.28;5364222;32;33670;-78
2023/04/05 12:30:13;;;;;;;;;;;;;;;18.31;14.71;100560.22;5375870;32;33127;-71
2023/04/05 12:33:24;;;;;;;;;;;;;;;20.34;13.05;100549.91;5367715;32;33028;-75
2023/04/05 12:36:26;;;;;;;;;;;;;;;17.27;15.25;100571.56;5381139;32;31277;-70
2023/04/05 12:39:31;;;;;;;;;;;;;;;21.01;12.45;100547.31;5351054;32;32568;-70
2023/04/05 12:42:34;;;;;;;;;;;;;;;19.46;13.25;100555.63;5382079;32;32995;-75
2023/04/05 12:45:40;;;;;;;;;;;;;;;18.67;13.73;100554.19;5370964;32;33293;-73
2023/04/05 12:48:43;;;;;;;;;;;;;;;19.19;13.30;100549.63;5367505;32;46195;-69
2023/04/05 12:51:45;;;;;;;;;;;;;;;21.16;12.06;100545.22;5356845;32;33829;-72
2023/04/05 12:54:54;;;;;;;;;;;;;;;17.27;14.79;100555.63;5363646;32;33646;-71
2023/04/05 12:57:59;;;;;;;;;;;;;;;17.60;14.34;100534.84;5377804;32;33053;-65
2023/04/05 13:01:02;;;;;;;;;;;;;;;23.63;10.66;100517.69;5355283;32;34340;-73
2023/04/05 13:04:04;;;;;;;;;;;;;;;23.54;10.48;100521.22;5358402;32;34622;-68
2023/04/05 13:07:17;;;;;;;;;;;;;;;21.10;12.05;100530.53;5371353;32;44310;-71
2023/04/05 13:10:19;;;;;;;;;;;;;;;17.67;13.96;100524.66;5376691;32;34253;-66
2023/04/05 13:13:21;;;;;;;;;;;;;;;21.31;11.87;100506.56;5385121;32;33282;-69
2023/04/05 13:16:23;;;;;;;;;;;;;;;17.21;14.59;100527.66;5372850;32;33349;-67
2023/04/05 13:19:25;;;;;;;;;;;;;;;16.78;14.96;100522.41;5385137;32;34215;-73
2023/04/05 13:22:28;;;;;;;;;;;;;;;16.25;15.74;100513.28;5361949;32;33082;-67
2023/04/05 13:25:29;;;;;;;;;;;;;;;15.42;16.83;100529.66;5379269;32;33405;-71
2023/04/05 13:28:33;;;;;;;;;;;;;;;13.76;18.64;100536.72;5375050;32;33077;-68
2023/04/05 13:31:35;;;;;;;;;;;;;;;13.12;19.76;100530.12;5376746;32;34029;-70
2023/04/05 13:34:37;;;;;;;;;;;;;;;13.46;19.81;100536.44;5384226;32;33000;-70
2023/04/05 13:37:39;;;;;;;;;;;;;;;13.16;20.04;100536.13;5371677;32;44195;-71
2023/04/05 13:40:41;;;;;;;;;;;;;;;13.77;19.16;100525.22;5386689;32;32983;-71
2023/04/05 13:43:43;;;;;;;;;;;;;;;11.54;21.04;100516.91;5374514;32;32981;-72
2023/04/05 13:46:45;;;;;;;;;;;;;;;12.16;20.79;100529.22;5372985;32;33175;-68
2023/04/05 13:49:47;;;;;;;;;;;;;;;12.09;20.83;100530.41;5381023;32;34519;-69
2023/04/05 13:52:50;;;;;;;;;;;;;;;11.77;21.12;100529.09;5368782;32;33564;-65
2023/04/05 13:55:52;;;;;;;;;;;;;;;12.40;20.72;100511.47;5387125;32;33333;-71
2023/04/05 13:58:54;;;;;;;;;;;;;;;11.87;21.29;100512.88;5370762;32;33083;-70
2023/04/05 14:01:56;;;;;;;;;;;;;;;12.06;21.38;100520.88;5383404;32;33000;-67
2023/04/05 14:04:58;;;;;;;;;;;;;;;12.25;21.19;100520.06;5355989;32;33117;-69
2023/04/05 14:08:00;;;;;;;;;;;;;;;12.43;21.18;100520.12;5362304;32;33139;-66
2023/04/05 14:11:03;;;;;;;;;;;;;;;11.64;22.14;100518.22;5374389;32;33268;-67
2023/04/05 14:14:05;;;;;;;;;;;;;;;12.73;20.82;100512.56;5370186;32;33079;-70
2023/04/05 14:17:07;;;;;;;;;;;;;;;11.50;21.94;100516.16;5385472;32;33488;-69
2023/04/05 14:20:09;;;;;;;;;;;;;;;10.93;22.82;100521.94;5367821;32;44664;-67
2023/04/05 14:23:11;;;;;;;;;;;;;;;11.00;22.75;100515.53;5378055;32;33101;-71
2023/04/05 14:26:13;;;;;;;;;;;;;;;11.74;22.02;100519.56;5374741;32;33234;-70
2023/04/05 14:29:16;;;;;;;;;;;;;;;10.64;23.09;100529.16;5362750;32;33734;-68
2023/04/05 14:32:18;;;;;;;;;;;;;;;12.55;21.04;100489.69;5376502;32;33822;-69
2023/04/05 14:35:20;;;;;;;;;;;;;;;11.79;21.54;100516.75;5342247;32;33130;-67
2023/04/05 14:38:23;;;;;;;;;;;;;;;11.64;21.84;100515.59;5374887;32;33474;-69
2023/04/05 14:41:28;;;;;;;;;;;;;;;10.51;22.86;100530.53;5364537;32;33102;-67
2023/04/05 14:44:30;;;;;;;;;;;;;;;10.68;23.20;100525.50;5372687;32;33328;-69
2023/04/05 14:47:32;;;;;;;;;;;;;;;11.14;22.49;100513.22;5372616;32;33275;-70
2023/04/05 14:50:34;;;;;;;;;;;;;;;10.61;23.31;100528.41;5361787;32;34355;-67
2023/04/05 14:53:36;;;;;;;;;;;;;;;11.06;22.60;100513.50;5381377;32;32813;-68
2023/04/05 14:56:38;;;;;;;;;;;;;;;12.05;21.61;100508.63;5359577;32;43562;-69
2023/04/05 14:59:42;;;;;;;;;;;;;;;11.77;21.38;100514.16;5379948;32;32739;-70
2023/04/05 15:02:44;;;;;;;;;;;;;;;12.16;21.04;100510.78;5368642;32;33089;-69
2023/04/05 15:05:46;;;;;;;;;;;;;;;11.53;22.06;100513.41;5357600;32;32993;-69
2023/04/05 15:08:49;;;;;;;;;;;;;;;12.69;20.86;100507.53;5372131;32;31899;-68
2023/04/05 15:11:51;;;;;;;;;;;;;;;11.87;21.63;100509.41;5363803;32;33191;-67
2023/04/05 15:14:56;;;;;;;;;;;;;;;12.56;21.06;100509.88;5382909;32;33526;-68
2023/04/05 15:17:58;;;;;;;;;;;;;;;11.66;21.68;100516.41;5369893;32;33886;-67
2023/04/05 15:21:00;;;;;;;;;;;;;;;11.50;21.81;100523.19;5386372;32;33452;-68
2023/04/05 15:24:02;;;;;;;;;;;;;;;10.90;22.88;100515.03;5371262;32;34952;-69
2023/04/05 15:27:04;;;;;;;;;;;;;;;11.31;22.40;100517.81;5375752;32;33580;-69
2023/04/05 15:30:06;;;;;;;;;;;;;;;10.58;23.20;100524.13;5372266;32;33474;-66
2023/04/05 15:33:08;;;;;;;;;;;;;;;11.31;22.67;100518.66;5367477;32;46744;-67
2023/04/05 15:36:10;;;;;;;;;;;;;;;11.14;23.00;100515.84;5386517;32;33860;-69
2023/04/05 15:39:13;;;;;;;;;;;;;;;12.59;21.79;100511.50;5368257;32;33906;-67
2023/04/05 15:42:17;;;;;;;;;;;;;;;12.42;21.41;100518.37;5378488;32;33282;-68
2023/04/05 15:45:19;;;;;;;;;;;;;;;12.42;21.29;100515.75;5369112;32;33650;-67
2023/04/05 15:48:21;;;;;;;;;;;;;;;11.47;22.65;100525.97;5371710;32;33873;-68